Time;durP1;ratioP1;P1;durP2;ratioP2;P2;SDS_P1;SDS_P2;PMS_P1;PMS_P2;Temp;Humidity;BMP_temperature;BMP_pressure;BME280_temperature;BME280_humidity;BME280_pressure;Samples;Min_cycle;Max_cycle;Signal;HPM_P1;HPM_P2
2022/05/29 00:02:08;;;;;;;5.60;3.00;;;12.20;63.30;;;;;;4873315;29;20501;-73
2022/05/29 00:04:39;;;;;;;6.57;3.20;;;12.20;63.30;;;;;;4877866;29;20493;-72
2022/05/29 00:07:10;;;;;;;5.47;3.10;;;12.20;63.40;;;;;;4872294;29;20471;-73
2022/05/29 00:09:42;;;;;;;8.70;3.30;;;12.20;63.50;;;;;;4874154;29;20478;-73
2022/05/29 00:12:12;;;;;;;5.07;2.73;;;12.20;63.50;;;;;;4868037;29;20459;-73
2022/05/29 00:14:42;;;;;;;7.10;3.70;;;12.20;63.50;;;;;;4874636;29;20491;-73
2022/05/29 00:17:11;;;;;;;5.37;2.83;;;12.10;63.50;;;;;;4870582;29;20819;-72
2022/05/29 00:19:39;;;;;;;5.60;2.80;;;12.10;63.50;;;;;;4867895;29;20551;-73
2022/05/29 00:22:10;;;;;;;6.07;3.20;;;12.10;63.60;;;;;;4870701;29;20527;-73
2022/05/29 00:24:38;;;;;;;5.77;3.03;;;12.10;63.60;;;;;;4867981;29;20471;-73
2022/05/29 00:27:07;;;;;;;5.73;3.40;;;12.00;63.70;;;;;;4874892;29;20477;-73
2022/05/29 00:29:35;;;;;;;5.63;3.27;;;12.10;63.80;;;;;;4874164;29;20463;-73
2022/05/29 00:32:04;;;;;;;8.87;3.30;;;12.10;63.90;;;;;;4860641;29;21105;-73
2022/05/29 00:34:34;;;;;;;4.90;2.87;;;12.10;64.00;;;;;;4850123;29;20550;-72
2022/05/29 00:37:04;;;;;;;5.00;2.80;;;12.10;64.00;;;;;;4875714;29;20470;-73
2022/05/29 00:39:32;;;;;;;5.50;2.87;;;12.10;63.90;;;;;;4880974;29;20523;-73
2022/05/29 00:42:02;;;;;;;5.87;3.60;;;12.10;63.90;;;;;;4877067;29;20490;-73
2022/05/29 00:44:31;;;;;;;5.00;2.63;;;12.00;63.90;;;;;;4881891;29;20534;-73
2022/05/29 00:47:10;;;;;;;6.20;3.10;;;12.00;63.90;;;;;;4879633;29;21344;-74
2022/05/29 00:49:41;;;;;;;7.00;3.30;;;12.00;64.00;;;;;;4851332;29;21240;-73
2022/05/29 00:52:13;;;;;;;5.60;3.20;;;12.00;64.00;;;;;;4869215;29;20467;-73
2022/05/29 00:54:49;;;;;;;5.00;3.17;;;11.90;64.00;;;;;;4879802;29;20495;-74
2022/05/29 00:57:20;;;;;;;5.50;3.03;;;11.90;64.20;;;;;;4855046;29;20989;-73
2022/05/29 00:59:48;;;;;;;6.60;3.30;;;11.90;64.20;;;;;;4857639;29;20555;-73
2022/05/29 01:02:16;;;;;;;7.00;3.10;;;11.90;64.30;;;;;;4870459;29;21282;-73
2022/05/29 01:04:46;;;;;;;5.63;3.40;;;11.90;64.40;;;;;;4858345;29;20916;-72
2022/05/29 01:07:16;;;;;;;4.47;2.57;;;11.90;64.30;;;;;;4872356;29;20478;-73
2022/05/29 01:09:47;;;;;;;5.43;3.27;;;11.80;64.20;;;;;;4872245;29;20472;-72
2022/05/29 01:12:31;;;;;;;7.30;3.90;;;11.80;64.40;;;;;;4877336;29;20475;-72
2022/05/29 01:15:08;;;;;;;5.50;2.77;;;11.80;64.40;;;;;;4875827;29;20495;-73
2022/05/29 01:17:48;;;;;;;7.53;3.40;;;11.80;64.50;;;;;;4873641;29;20489;-74
2022/05/29 01:20:39;;;;;;;7.27;2.90;;;11.80;64.50;;;;;;4877715;29;20471;-74
2022/05/29 01:23:59;;;;;;;5.23;3.03;;;11.80;64.60;;;;;;4870508;29;20482;-73
2022/05/29 01:27:02;;;;;;;4.70;2.83;;;11.80;64.70;;;;;;4853557;29;20901;-74
2022/05/29 01:29:40;;;;;;;5.53;3.00;;;11.80;64.70;;;;;;4854519;29;20491;-74
2022/05/29 01:32:14;;;;;;;5.37;2.77;;;11.80;64.60;;;;;;4854436;29;20489;-72
2022/05/29 01:34:47;;;;;;;4.47;2.40;;;11.80;64.60;;;;;;4873931;29;20491;-73
2022/05/29 01:37:20;;;;;;;4.77;2.40;;;11.80;64.70;;;;;;4880064;29;20831;-72
2022/05/29 01:39:56;;;;;;;5.90;2.80;;;11.80;64.70;;;;;;4878152;29;20466;-73
2022/05/29 01:42:31;;;;;;;4.67;2.67;;;11.70;64.70;;;;;;4872244;29;20507;-74
2022/05/29 01:45:06;;;;;;;5.40;2.43;;;11.70;64.60;;;;;;4877407;29;20492;-74
2022/05/29 01:47:42;;;;;;;5.03;2.93;;;11.60;64.60;;;;;;4875608;29;20489;-73
2022/05/29 01:50:18;;;;;;;6.97;2.53;;;11.60;64.70;;;;;;4878378;29;20471;-74
2022/05/29 01:52:53;;;;;;;4.93;3.20;;;11.60;64.80;;;;;;4874475;29;20474;-73
2022/05/29 01:55:26;;;;;;;5.03;2.93;;;11.50;64.80;;;;;;4871279;29;20565;-74
2022/05/29 01:58:00;;;;;;;4.93;3.20;;;11.50;64.80;;;;;;4870053;29;20861;-73
2022/05/29 02:00:30;;;;;;;5.87;2.97;;;11.50;64.90;;;;;;4873079;29;20475;-73
2022/05/29 02:03:03;;;;;;;5.00;3.20;;;11.50;65.00;;;;;;4876561;29;20874;-74
2022/05/29 02:05:36;;;;;;;5.40;2.67;;;11.50;65.00;;;;;;4871969;29;20451;-73
2022/05/29 02:08:14;;;;;;;4.97;2.50;;;11.50;65.00;;;;;;4861402;29;20471;-74
2022/05/29 02:10:48;;;;;;;8.37;3.30;;;11.40;65.00;;;;;;4878290;29;20470;-73
2022/05/29 02:13:21;;;;;;;5.70;2.63;;;11.40;65.00;;;;;;4872489;29;20501;-73
2022/05/29 02:15:55;;;;;;;5.50;3.20;;;11.40;65.10;;;;;;4871708;29;20989;-73
2022/05/29 02:18:30;;;;;;;4.23;2.47;;;11.40;65.10;;;;;;4871757;29;20463;-74
2022/05/29 02:21:02;;;;;;;5.53;3.20;;;11.40;65.10;;;;;;4872578;29;20549;-73
2022/05/29 02:23:37;;;;;;;5.80;3.27;;;11.30;65.20;;;;;;4874435;29;20484;-74
2022/05/29 02:26:06;;;;;;;5.73;2.93;;;11.30;65.20;;;;;;4875355;29;20458;-73
2022/05/29 02:28:37;;;;;;;4.97;3.07;;;11.30;65.20;;;;;;4877987;29;20463;-73
2022/05/29 02:31:16;;;;;;;4.80;2.70;;;11.30;65.20;;;;;;4873054;29;20491;-73
2022/05/29 02:33:53;;;;;;;4.33;2.67;;;11.30;65.10;;;;;;4871555;29;20586;-73
2022/05/29 02:36:29;;;;;;;7.40;2.53;;;11.20;65.30;;;;;;4874332;29;20492;-73
2022/05/29 02:39:13;;;;;;;4.90;2.97;;;11.20;65.30;;;;;;4873653;29;20462;-73
2022/05/29 02:41:52;;;;;;;5.17;2.90;;;11.20;65.50;;;;;;4869132;29;20523;-74
2022/05/29 02:44:36;;;;;;;6.33;3.00;;;11.20;65.50;;;;;;4876561;29;20509;-74
2022/05/29 02:47:17;;;;;;;4.93;2.70;;;11.20;65.50;;;;;;4871882;29;20479;-73
2022/05/29 02:49:54;;;;;;;5.10;2.50;;;11.20;65.50;;;;;;4873571;29;20467;-73
2022/05/29 02:52:22;;;;;;;4.53;2.33;;;11.20;65.40;;;;;;4869883;29;20479;-74
2022/05/29 02:54:51;;;;;;;4.23;2.73;;;11.10;65.40;;;;;;4880762;29;20490;-73
2022/05/29 02:57:20;;;;;;;6.00;2.73;;;11.10;65.40;;;;;;4869989;29;20463;-74
2022/05/29 02:59:52;;;;;;;5.17;2.50;;;11.00;65.40;;;;;;4867515;29;20471;-73
2022/05/29 03:02:32;;;;;;;5.10;3.33;;;11.00;65.60;;;;;;4871348;29;20486;-74
2022/05/29 03:05:12;;;;;;;5.90;3.30;;;11.00;65.60;;;;;;4874169;29;20485;-74
2022/05/29 03:07:53;;;;;;;5.80;2.90;;;11.00;65.60;;;;;;4872334;29;20467;-74
2022/05/29 03:10:26;;;;;;;5.80;2.70;;;10.90;65.70;;;;;;4866889;29;20474;-73
2022/05/29 03:13:05;;;;;;;5.87;2.57;;;10.90;65.70;;;;;;4840845;29;20531;-73
2022/05/29 03:15:41;;;;;;;5.43;3.00;;;10.90;65.70;;;;;;4852234;29;20891;-74
2022/05/29 03:18:21;;;;;;;5.60;2.57;;;10.90;65.60;;;;;;4874554;29;21031;-73
2022/05/29 03:20:59;;;;;;;6.27;3.00;;;10.80;65.60;;;;;;4882065;29;20465;-72
2022/05/29 03:23:35;;;;;;;4.33;2.47;;;10.80;65.70;;;;;;4871484;29;20498;-74
2022/05/29 03:26:07;;;;;;;7.10;2.77;;;10.80;65.90;;;;;;4854155;29;20471;-73
2022/05/29 03:28:41;;;;;;;6.70;3.33;;;10.80;65.80;;;;;;4870451;29;20462;-74
2022/05/29 03:31:13;;;;;;;4.93;2.83;;;10.80;65.70;;;;;;4846022;29;20479;-73
2022/05/29 03:33:46;;;;;;;4.93;2.83;;;10.70;65.80;;;;;;4871322;29;20534;-73
2022/05/29 03:36:15;;;;;;;6.07;2.80;;;10.70;66.00;;;;;;4868152;29;20495;-72
2022/05/29 03:38:43;;;;;;;6.10;2.67;;;10.70;65.90;;;;;;4867404;29;20475;-72
2022/05/29 03:41:15;;;;;;;8.93;2.73;;;10.60;66.00;;;;;;4866318;29;20475;-73
2022/05/29 03:43:44;;;;;;;4.80;2.80;;;10.60;66.10;;;;;;4851576;29;20570;-72
2022/05/29 03:46:17;;;;;;;4.70;2.80;;;10.60;66.10;;;;;;4868173;29;20542;-73
2022/05/29 03:48:46;;;;;;;6.20;3.13;;;10.60;66.10;;;;;;4865574;29;20467;-73
2022/05/29 03:51:14;;;;;;;8.70;4.40;;;10.50;66.20;;;;;;4863824;29;20486;-73
2022/05/29 03:53:43;;;;;;;5.07;3.10;;;10.50;66.50;;;;;;4857910;29;20566;-72
2022/05/29 03:56:11;;;;;;;5.23;2.87;;;10.60;66.60;;;;;;4868841;29;20514;-72
2022/05/29 03:58:39;;;;;;;6.00;3.10;;;10.60;66.60;;;;;;4850935;29;20479;-73
2022/05/29 04:01:08;;;;;;;5.20;2.70;;;10.70;66.60;;;;;;4865519;29;20506;-72
2022/05/29 04:03:36;;;;;;;6.57;2.83;;;10.70;66.60;;;;;;4871815;29;20613;-73
2022/05/29 04:06:05;;;;;;;5.33;3.20;;;10.70;66.70;;;;;;4874006;29;20477;-73
2022/05/29 04:14:06;;;;;;;5.30;3.07;;;10.70;66.60;;;;;;4866565;29;20503;-74
2022/05/29 04:16:34;;;;;;;4.93;2.70;;;10.70;66.70;;;;;;4871216;29;21129;-72
2022/05/29 04:19:03;;;;;;;6.67;3.13;;;10.70;66.90;;;;;;4882021;29;21098;-72
2022/05/29 04:21:33;;;;;;;5.97;3.10;;;10.70;66.90;;;;;;4873592;29;20464;-72
2022/05/29 04:24:01;;;;;;;5.57;2.60;;;10.70;67.00;;;;;;4878100;29;21191;-72
2022/05/29 04:26:29;;;;;;;5.77;3.10;;;10.80;67.10;;;;;;4873355;29;20486;-74
2022/05/29 04:28:57;;;;;;;7.10;2.80;;;10.80;67.10;;;;;;4878769;29;20450;-74
2022/05/29 04:31:25;;;;;;;9.30;2.90;;;10.90;67.10;;;;;;4873505;29;20484;-74
2022/05/29 04:33:52;;;;;;;5.30;3.10;;;10.90;67.20;;;;;;4875845;29;20585;-74
2022/05/29 04:36:20;;;;;;;5.27;2.90;;;11.00;67.50;;;;;;4878719;29;20502;-72
2022/05/29 04:38:50;;;;;;;5.77;2.90;;;11.10;67.60;;;;;;4876740;29;20463;-72
2022/05/29 04:41:19;;;;;;;5.40;3.17;;;11.20;67.60;;;;;;4873718;29;20475;-75
2022/05/29 04:43:47;;;;;;;6.00;3.00;;;11.30;67.50;;;;;;4874544;29;20534;-75
2022/05/29 04:46:15;;;;;;;5.73;2.80;;;11.30;67.40;;;;;;4874466;29;20747;-72
2022/05/29 04:48:43;;;;;;;5.90;3.20;;;11.30;67.50;;;;;;4870454;29;20464;-74
2022/05/29 04:51:12;;;;;;;6.27;3.00;;;11.30;67.60;;;;;;4874464;29;20459;-73
2022/05/29 04:53:41;;;;;;;7.17;3.37;;;11.40;67.70;;;;;;4876069;29;20547;-73
2022/05/29 04:56:10;;;;;;;8.47;3.83;;;11.30;67.70;;;;;;4873835;29;20491;-73
2022/05/29 04:58:38;;;;;;;5.10;3.27;;;11.30;67.90;;;;;;4870439;29;20563;-73
2022/05/29 05:01:06;;;;;;;6.83;3.27;;;11.40;68.10;;;;;;4873663;29;20527;-73
2022/05/29 05:03:34;;;;;;;6.40;3.40;;;11.50;68.20;;;;;;4874363;29;20506;-73
2022/05/29 05:06:03;;;;;;;6.30;3.20;;;11.60;68.30;;;;;;4871014;29;20451;-73
2022/05/29 05:08:31;;;;;;;6.20;3.20;;;11.60;68.40;;;;;;4871976;29;20480;-73
2022/05/29 05:10:59;;;;;;;6.30;3.23;;;11.70;68.50;;;;;;4868074;29;20478;-74
2022/05/29 05:13:28;;;;;;;9.00;3.27;;;11.80;68.60;;;;;;4868457;29;20513;-74
2022/05/29 05:16:01;;;;;;;7.30;3.80;;;11.90;68.80;;;;;;4871946;29;20494;-73
2022/05/29 05:18:29;;;;;;;5.60;3.40;;;11.90;68.90;;;;;;4878370;29;20526;-74
2022/05/29 05:20:57;;;;;;;5.37;3.10;;;12.00;69.00;;;;;;4879198;29;20470;-74
2022/05/29 05:23:25;;;;;;;6.10;4.00;;;12.00;69.20;;;;;;4876391;29;20868;-73
2022/05/29 05:25:53;;;;;;;8.37;4.30;;;12.10;69.20;;;;;;4881191;29;20489;-73
2022/05/29 05:28:21;;;;;;;6.63;3.73;;;12.20;69.30;;;;;;4882357;29;20473;-72
2022/05/29 05:30:50;;;;;;;9.83;4.20;;;12.10;69.20;;;;;;4876249;29;20501;-74
2022/05/29 05:33:18;;;;;;;8.70;4.80;;;12.10;69.20;;;;;;4874562;29;20491;-74
2022/05/29 05:35:47;;;;;;;6.50;4.33;;;12.10;69.40;;;;;;4878718;29;20519;-72
2022/05/29 05:38:15;;;;;;;6.57;3.30;;;12.10;69.40;;;;;;4875386;29;20467;-72
2022/05/29 05:40:43;;;;;;;9.00;4.07;;;12.10;69.60;;;;;;4877624;29;20477;-72
2022/05/29 05:43:11;;;;;;;9.00;3.93;;;12.10;69.70;;;;;;4867894;29;20950;-72
2022/05/29 05:45:41;;;;;;;6.83;3.60;;;12.20;69.80;;;;;;4870555;29;20475;-72
2022/05/29 05:48:11;;;;;;;9.23;3.87;;;12.20;69.90;;;;;;4879859;29;21228;-73
2022/05/29 05:50:39;;;;;;;10.13;3.53;;;12.20;70.00;;;;;;4875749;29;20467;-74
2022/05/29 05:53:07;;;;;;;11.90;3.90;;;12.20;70.10;;;;;;4884177;29;21085;-74
2022/05/29 05:55:39;;;;;;;12.73;4.33;;;12.30;70.20;;;;;;4875046;29;20475;-72
2022/05/29 05:58:08;;;;;;;10.27;3.30;;;12.30;70.30;;;;;;4873223;29;20490;-73
2022/05/29 06:00:36;;;;;;;6.13;3.50;;;12.40;70.40;;;;;;4877457;29;20475;-73
2022/05/29 06:03:04;;;;;;;7.77;3.20;;;12.50;70.50;;;;;;4861187;29;20491;-72
2022/05/29 06:05:33;;;;;;;10.90;3.33;;;12.60;70.60;;;;;;4874731;29;20957;-72
2022/05/29 06:08:01;;;;;;;10.13;3.20;;;12.70;70.70;;;;;;4871595;29;20469;-73
2022/05/29 06:10:29;;;;;;;8.30;3.10;;;12.70;70.50;;;;;;4858435;29;20479;-75
2022/05/29 06:13:01;;;;;;;6.40;3.03;;;12.80;70.70;;;;;;4873346;29;20475;-74
2022/05/29 06:15:29;;;;;;;7.43;2.57;;;12.90;70.70;;;;;;4872566;29;20480;-73
2022/05/29 06:17:57;;;;;;;8.27;2.73;;;12.90;70.80;;;;;;4872648;29;20495;-74
2022/05/29 06:20:25;;;;;;;6.73;2.87;;;13.00;70.80;;;;;;4872395;29;20470;-75
2022/05/29 06:22:55;;;;;;;8.53;2.50;;;13.00;71.00;;;;;;4857711;29;20492;-74
2022/05/29 06:25:23;;;;;;;8.30;3.00;;;13.20;71.00;;;;;;4857603;29;20518;-75
2022/05/29 06:27:51;;;;;;;8.77;2.60;;;13.30;71.00;;;;;;4875351;29;20506;-74
2022/05/29 06:30:19;;;;;;;7.30;3.10;;;13.40;70.70;;;;;;4878265;29;20984;-74
2022/05/29 06:32:47;;;;;;;7.43;2.40;;;13.50;70.50;;;;;;4872773;29;20478;-73
2022/05/29 06:35:16;;;;;;;8.80;3.27;;;13.50;70.30;;;;;;4876695;29;20467;-74
2022/05/29 06:37:44;;;;;;;7.53;2.80;;;13.60;70.20;;;;;;4879973;29;20495;-74
2022/05/29 06:40:14;;;;;;;6.70;2.90;;;13.60;70.10;;;;;;4872598;29;20474;-75
2022/05/29 06:42:43;;;;;;;9.40;2.73;;;13.70;70.00;;;;;;4878571;29;20467;-74
2022/05/29 06:45:12;;;;;;;9.77;2.50;;;13.70;69.90;;;;;;4865357;29;20491;-73
2022/05/29 06:47:40;;;;;;;9.10;2.40;;;13.80;69.80;;;;;;4875778;29;20448;-74
2022/05/29 06:50:10;;;;;;;12.20;3.53;;;13.80;69.80;;;;;;4870109;29;20965;-74
2022/05/29 06:52:39;;;;;;;10.40;2.50;;;13.80;69.50;;;;;;4875148;29;20478;-73
2022/05/29 06:55:09;;;;;;;9.17;3.10;;;13.80;69.50;;;;;;4880228;29;20482;-75
2022/05/29 06:57:41;;;;;;;9.90;3.03;;;13.90;69.50;;;;;;4875453;29;20502;-75
2022/05/29 07:08:30;;;;;;;5.40;2.73;;;13.90;69.20;;;;;;4872579;29;20519;-74
2022/05/29 07:11:02;;;;;;;6.57;2.50;;;13.90;69.20;;;;;;4855060;29;20519;-72
2022/05/29 07:13:32;;;;;;;12.47;3.07;;;13.80;69.10;;;;;;4870349;29;20499;-74
2022/05/29 07:16:01;;;;;;;9.27;3.00;;;13.80;69.10;;;;;;4869048;29;20476;-73
2022/05/29 07:18:30;;;;;;;7.87;2.70;;;13.80;69.30;;;;;;4868130;29;20679;-73
2022/05/29 07:21:00;;;;;;;5.70;2.80;;;13.90;69.30;;;;;;4855577;29;20917;-73
2022/05/29 07:23:29;;;;;;;10.13;2.97;;;14.00;69.30;;;;;;4870822;29;20571;-73
2022/05/29 07:25:59;;;;;;;6.33;2.50;;;14.00;69.10;;;;;;4870031;29;20582;-75
2022/05/29 07:28:27;;;;;;;14.63;3.23;;;14.00;68.80;;;;;;4871518;29;20451;-75
2022/05/29 07:30:57;;;;;;;8.63;2.80;;;14.10;69.00;;;;;;4867523;29;20478;-74
2022/05/29 07:33:27;;;;;;;10.33;3.70;;;14.10;69.00;;;;;;4872429;29;20488;-74
2022/05/29 07:35:56;;;;;;;7.80;2.70;;;14.20;69.00;;;;;;4857452;29;20470;-74
2022/05/29 07:38:24;;;;;;;7.43;2.60;;;14.20;68.90;;;;;;4867640;29;20486;-73
2022/05/29 07:40:52;;;;;;;7.53;2.43;;;14.20;68.60;;;;;;4863068;29;20987;-74
2022/05/29 07:43:20;;;;;;;9.70;3.47;;;14.30;68.80;;;;;;4866885;29;21129;-74
2022/05/29 07:45:49;;;;;;;8.63;2.50;;;14.30;68.70;;;;;;4870556;29;20518;-73
2022/05/29 07:48:19;;;;;;;7.23;3.10;;;14.40;68.60;;;;;;4865252;29;20478;-73
2022/05/29 07:50:47;;;;;;;8.90;2.77;;;14.40;68.70;;;;;;4874992;29;20493;-75
2022/05/29 07:53:15;;;;;;;9.50;2.80;;;14.40;68.50;;;;;;4872681;29;20488;-73
2022/05/29 07:55:44;;;;;;;9.43;3.03;;;14.30;68.40;;;;;;4866939;29;20475;-72
2022/05/29 07:58:13;;;;;;;10.77;2.80;;;14.40;68.50;;;;;;4866425;29;20491;-74
2022/05/29 08:00:42;;;;;;;9.27;2.73;;;14.40;68.40;;;;;;4870466;29;20878;-74
2022/05/29 08:03:10;;;;;;;13.93;2.83;;;14.40;68.30;;;;;;4866967;29;20483;-74
2022/05/29 08:05:41;;;;;;;12.10;2.67;;;14.40;67.40;;;;;;4868343;29;20499;-74
2022/05/29 08:08:10;;;;;;;5.47;2.20;;;14.30;67.60;;;;;;4851210;29;20502;-74
2022/05/29 08:10:41;;;;;;;17.10;2.83;;;14.30;67.70;;;;;;4850459;29;20471;-74
2022/05/29 08:13:09;;;;;;;6.33;1.60;;;14.40;67.70;;;;;;4866559;29;20488;-73
2022/05/29 08:15:38;;;;;;;6.57;2.20;;;14.40;67.50;;;;;;4867792;29;20520;-73
2022/05/29 08:18:06;;;;;;;10.37;1.93;;;14.50;67.40;;;;;;4872078;29;21056;-73
2022/05/29 08:20:36;;;;;;;5.60;2.30;;;14.60;67.40;;;;;;4876217;29;20470;-74
2022/05/29 08:23:06;;;;;;;9.37;2.00;;;14.70;66.90;;;;;;4875909;29;20501;-74
2022/05/29 08:31:07;;;;;;;8.20;2.40;;;14.80;66.70;;;;;;4869541;29;20487;-73
2022/05/29 08:33:36;;;;;;;8.80;2.20;;;14.80;66.50;;;;;;4872856;29;20490;-74
2022/05/29 08:36:07;;;;;;;4.63;1.77;;;14.80;66.20;;;;;;4866059;29;20479;-73
2022/05/29 08:38:39;;;;;;;8.50;2.20;;;14.80;65.60;;;;;;4855470;29;20869;-74
2022/05/29 08:41:12;;;;;;;7.37;1.60;;;14.70;65.30;;;;;;4871701;29;20479;-73
2022/05/29 08:43:52;;;;;;;16.30;2.43;;;14.70;65.10;;;;;;4873396;29;20561;-73
2022/05/29 08:46:24;;;;;;;5.90;1.83;;;14.70;65.00;;;;;;4869305;29;20619;-74
2022/05/29 08:48:55;;;;;;;8.30;2.03;;;14.70;65.10;;;;;;4868683;29;20470;-74
2022/05/29 08:51:44;;;;;;;10.73;1.50;;;14.80;64.70;;;;;;4863125;29;20471;-75
2022/05/29 08:54:17;;;;;;;4.37;1.30;;;14.80;64.40;;;;;;4869665;29;20488;-74
2022/05/29 08:57:00;;;;;;;8.20;1.90;;;14.90;64.40;;;;;;4852478;29;21058;-74
2022/05/29 08:59:40;;;;;;;7.23;1.93;;;14.90;63.80;;;;;;4868747;29;20903;-74
2022/05/29 09:02:17;;;;;;;11.20;2.10;;;15.10;63.70;;;;;;4852279;29;20476;-73
2022/05/29 09:04:50;;;;;;;7.80;1.70;;;15.10;63.70;;;;;;4871784;29;20490;-73
2022/05/29 09:07:22;;;;;;;12.77;1.87;;;15.20;63.40;;;;;;4867168;29;20573;-73
2022/05/29 09:09:55;;;;;;;8.20;2.00;;;15.30;63.40;;;;;;4882617;29;20467;-73
2022/05/29 09:12:29;;;;;;;6.10;1.70;;;15.40;63.20;;;;;;4874555;29;20467;-73
2022/05/29 09:15:00;;;;;;;8.73;1.70;;;15.40;63.00;;;;;;4875290;29;21086;-73
2022/05/29 09:17:31;;;;;;;7.07;2.40;;;15.50;63.00;;;;;;4873984;29;20509;-74
2022/05/29 09:20:02;;;;;;;7.17;1.57;;;15.50;62.90;;;;;;4871980;29;20495;-73
2022/05/29 09:22:33;;;;;;;7.73;2.60;;;15.60;62.70;;;;;;4877411;29;20466;-73
2022/05/29 09:25:08;;;;;;;6.53;1.77;;;15.60;62.70;;;;;;4883303;29;21011;-73
2022/05/29 09:27:39;;;;;;;5.30;1.97;;;15.60;62.60;;;;;;4887341;29;20454;-73
2022/05/29 09:30:08;;;;;;;11.40;2.03;;;15.60;62.60;;;;;;4875370;29;20486;-73
2022/05/29 09:32:43;;;;;;;7.43;1.40;;;15.70;62.50;;;;;;4869522;29;20485;-72
2022/05/29 09:35:15;;;;;;;6.27;2.20;;;15.70;62.30;;;;;;4876195;29;20469;-72
2022/05/29 09:37:53;;;;;;;6.20;1.77;;;15.70;62.10;;;;;;4880257;29;20874;-72
2022/05/29 09:40:27;;;;;;;5.77;1.77;;;15.60;62.00;;;;;;4874845;29;20481;-72
2022/05/29 09:42:55;;;;;;;10.40;2.10;;;15.60;62.10;;;;;;4861246;29;20467;-72
2022/05/29 09:45:30;;;;;;;9.23;1.70;;;15.50;62.00;;;;;;4877494;29;20474;-72
2022/05/29 09:50:49;;;;;;;9.50;2.67;;;15.30;62.50;;;;;;4878972;29;20467;-72
2022/05/29 09:53:21;;;;;;;5.60;2.30;;;15.10;62.80;;;;;;4890312;29;20479;-72
2022/05/29 09:55:57;;;;;;;8.20;2.60;;;14.90;63.10;;;;;;4888572;29;20465;-73
2022/05/29 09:58:31;;;;;;;8.67;2.77;;;14.80;63.60;;;;;;4878652;29;20478;-74
2022/05/29 10:01:03;;;;;;;10.23;2.87;;;14.80;64.20;;;;;;4874207;29;20473;-74
2022/05/29 10:03:40;;;;;;;11.13;2.70;;;14.80;64.30;;;;;;4882367;29;20483;-73
2022/05/29 10:06:12;;;;;;;10.83;2.27;;;14.80;64.50;;;;;;4871795;29;20459;-73
2022/05/29 10:08:40;;;;;;;9.80;2.17;;;14.80;64.70;;;;;;4872411;29;20464;-74
2022/05/29 10:11:20;;;;;;;5.63;2.40;;;14.90;65.00;;;;;;4863006;29;20455;-73
2022/05/29 10:13:50;;;;;;;8.43;2.60;;;14.90;65.20;;;;;;4873243;29;20499;-73
2022/05/29 10:16:33;;;;;;;7.50;2.60;;;15.00;65.50;;;;;;4869034;29;20483;-74
2022/05/29 10:19:02;;;;;;;7.00;2.47;;;15.00;65.50;;;;;;4868702;29;20540;-74
2022/05/29 10:21:32;;;;;;;6.03;2.50;;;15.00;65.50;;;;;;4869554;29;20459;-74
2022/05/29 10:24:20;;;;;;;7.20;2.17;;;15.00;66.10;;;;;;4873480;29;20483;-72
2022/05/29 10:26:52;;;;;;;7.83;2.40;;;15.10;66.20;;;;;;4872773;29;20476;-72
2022/05/29 10:29:23;;;;;;;4.57;2.20;;;15.10;66.20;;;;;;4869174;29;21036;-73
2022/05/29 10:31:52;;;;;;;5.20;2.20;;;15.20;66.40;;;;;;4865271;29;20704;-74
2022/05/29 10:34:26;;;;;;;5.70;2.20;;;15.30;66.50;;;;;;4867997;29;20491;-73
2022/05/29 10:36:54;;;;;;;5.77;2.10;;;15.30;66.60;;;;;;4868421;29;20501;-74
2022/05/29 10:39:25;;;;;;;8.60;2.17;;;15.40;66.60;;;;;;4865064;29;20479;-74
2022/05/29 10:41:55;;;;;;;7.43;2.53;;;15.40;66.70;;;;;;4871239;29;20466;-73
2022/05/29 10:44:42;;;;;;;6.30;2.60;;;15.40;66.70;;;;;;4871529;29;20527;-73
2022/05/29 10:47:21;;;;;;;5.27;2.10;;;15.40;66.90;;;;;;4871818;29;20509;-72
2022/05/29 10:50:02;;;;;;;5.87;1.90;;;15.50;67.00;;;;;;4852791;29;20859;-74
2022/05/29 10:53:01;;;;;;;5.33;2.23;;;15.50;67.10;;;;;;4855804;29;20482;-73
2022/05/29 10:55:41;;;;;;;6.93;2.10;;;15.50;67.20;;;;;;4872880;29;20865;-73
2022/05/29 10:58:49;;;;;;;9.00;2.03;;;15.50;67.20;;;;;;4870260;29;20472;-73
2022/05/29 11:04:40;;;;;;;8.43;2.27;;;15.60;67.50;;;;;;4865742;29;20582;-73
2022/05/29 11:07:28;;;;;;;6.50;2.50;;;15.70;67.70;;;;;;4852089;29;20460;-73
2022/05/29 11:10:33;;;;;;;8.40;2.50;;;15.70;67.70;;;;;;4866509;29;20547;-73
2022/05/29 11:13:17;;;;;;;11.77;2.30;;;15.70;67.80;;;;;;4866037;29;21005;-72
2022/05/29 11:15:59;;;;;;;8.40;2.07;;;15.70;67.70;;;;;;4866629;29;20495;-73
2022/05/29 11:18:59;;;;;;;5.33;2.27;;;15.80;67.70;;;;;;4872467;29;20482;-72
2022/05/29 11:21:41;;;;;;;7.00;2.60;;;15.80;67.50;;;;;;4819412;29;20961;-73
2022/05/29 11:24:36;;;;;;;7.17;2.17;;;15.80;67.50;;;;;;4869857;29;20483;-72
2022/05/29 11:27:21;;;;;;;5.97;2.00;;;15.80;67.50;;;;;;4845081;29;20506;-72
2022/05/29 11:30:04;;;;;;;10.80;2.70;;;15.80;67.50;;;;;;4861828;29;20462;-72
2022/05/29 11:32:53;;;;;;;9.53;3.87;;;15.90;67.40;;;;;;4869844;29;20503;-74
2022/05/29 11:35:46;;;;;;;7.87;2.97;;;15.90;67.40;;;;;;4863195;29;20554;-73
2022/05/29 11:38:38;;;;;;;9.67;2.80;;;15.90;67.40;;;;;;4862950;29;20531;-74
2022/05/29 11:41:11;;;;;;;6.23;1.93;;;15.90;67.30;;;;;;4861876;29;20491;-72
2022/05/29 11:43:49;;;;;;;8.57;2.33;;;15.90;67.20;;;;;;4871125;29;20538;-72
2022/05/29 11:52:18;;;;;;;8.17;3.13;;;16.00;67.40;;;;;;4872007;29;20494;-72
2022/05/29 11:54:50;;;;;;;6.47;2.20;;;16.00;67.40;;;;;;4865046;29;20500;-72
2022/05/29 11:57:25;;;;;;;5.00;1.90;;;16.00;67.40;;;;;;4867587;29;21011;-72
2022/05/29 11:59:58;;;;;;;9.93;2.90;;;16.10;67.30;;;;;;4875234;29;20493;-73
2022/05/29 12:02:33;;;;;;;9.30;2.00;;;16.10;67.10;;;;;;4865921;29;20502;-73
2022/05/29 12:05:15;;;;;;;8.67;2.40;;;16.10;66.80;;;;;;4867281;29;20524;-74
2022/05/29 12:07:47;;;;;;;7.90;2.23;;;16.20;66.80;;;;;;4880514;29;20499;-72
2022/05/29 12:10:21;;;;;;;5.03;1.43;;;16.20;66.50;;;;;;4871769;29;20474;-75
2022/05/29 12:12:56;;;;;;;10.33;1.93;;;16.20;66.00;;;;;;4870434;29;20481;-74
2022/05/29 12:15:25;;;;;;;5.43;1.90;;;16.10;65.40;;;;;;4866712;29;21052;-75
2022/05/29 12:18:03;;;;;;;4.77;1.70;;;16.10;65.10;;;;;;4871192;29;20470;-72
2022/05/29 12:20:40;;;;;;;5.30;1.50;;;16.10;65.30;;;;;;4871402;29;20479;-74
2022/05/29 12:23:19;;;;;;;3.90;1.70;;;16.00;64.80;;;;;;4875691;29;21119;-74
2022/05/29 12:25:55;;;;;;;5.87;1.37;;;16.10;64.60;;;;;;4885349;29;20470;-74
2022/05/29 12:28:30;;;;;;;7.03;1.70;;;16.10;64.60;;;;;;4887006;29;20472;-74
2022/05/29 12:31:00;;;;;;;4.97;1.40;;;16.10;64.60;;;;;;4851407;29;20499;-74
2022/05/29 12:33:28;;;;;;;5.30;1.40;;;16.20;64.40;;;;;;4873469;29;20483;-74
2022/05/29 12:36:15;;;;;;;7.40;1.73;;;16.30;64.20;;;;;;4879877;29;20484;-74
2022/05/29 12:39:02;;;;;;;5.83;1.67;;;16.40;63.40;;;;;;4870560;29;20459;-74
2022/05/29 12:42:03;;;;;;;6.40;1.57;;;16.40;63.60;;;;;;4879494;29;20494;-74
2022/05/29 12:44:59;;;;;;;6.13;1.87;;;16.50;63.60;;;;;;4850532;29;20480;-73
2022/05/29 12:47:52;;;;;;;5.30;1.60;;;16.70;63.70;;;;;;4884985;29;20474;-74
2022/05/29 12:50:49;;;;;;;4.43;1.63;;;16.80;63.30;;;;;;4874470;29;20480;-73
2022/05/29 12:54:10;;;;;;;5.40;1.80;;;16.90;62.90;;;;;;4869981;29;20483;-74
2022/05/29 12:56:56;;;;;;;4.77;1.50;;;17.00;62.30;;;;;;4859812;29;20474;-75
2022/05/29 12:59:41;;;;;;;6.73;1.50;;;17.00;62.00;;;;;;4878923;29;20823;-74
2022/05/29 13:02:19;;;;;;;6.40;1.80;;;17.10;61.90;;;;;;4871685;29;20523;-74
2022/05/29 13:05:18;;;;;;;6.10;1.53;;;17.20;61.30;;;;;;4873193;29;20493;-73
2022/05/29 13:08:18;;;;;;;6.17;1.47;;;17.20;61.20;;;;;;4876356;29;20457;-74
2022/05/29 13:10:52;;;;;;;7.23;1.80;;;17.20;60.90;;;;;;4885122;29;20990;-73
2022/05/29 13:13:32;;;;;;;5.37;1.53;;;17.20;60.70;;;;;;4882441;29;20498;-73
2022/05/29 13:16:23;;;;;;;5.43;1.20;;;17.10;60.10;;;;;;4867879;29;21059;-73
2022/05/29 13:21:59;;;;;;;6.90;1.30;;;17.00;59.40;;;;;;4875344;29;20502;-73
2022/05/29 13:24:31;;;;;;;5.20;1.30;;;16.90;59.70;;;;;;4883162;29;21003;-74
2022/05/29 13:27:30;;;;;;;5.67;1.67;;;16.90;59.70;;;;;;4885996;29;20464;-73
2022/05/29 13:30:00;;;;;;;5.60;1.37;;;16.80;59.60;;;;;;4873566;29;20475;-75
2022/05/29 13:32:36;;;;;;;4.17;1.40;;;16.80;59.40;;;;;;4876722;29;20491;-73
2022/05/29 13:35:36;;;;;;;8.50;1.50;;;16.70;59.30;;;;;;4891535;29;20560;-73
2022/05/29 13:38:04;;;;;;;4.77;1.60;;;16.70;59.30;;;;;;4870950;29;20461;-73
2022/05/29 13:40:46;;;;;;;5.37;1.10;;;16.70;59.50;;;;;;4868420;29;20550;-73
2022/05/29 13:43:42;;;;;;;4.10;1.17;;;16.60;59.40;;;;;;4860662;29;20894;-73
2022/05/29 13:46:23;;;;;;;6.40;1.30;;;16.60;58.80;;;;;;4828339;29;20475;-73
2022/05/29 13:49:03;;;;;;;7.73;1.40;;;16.60;58.90;;;;;;4883502;29;20466;-73
2022/05/29 13:51:41;;;;;;;5.87;1.77;;;16.50;58.70;;;;;;4877638;29;20959;-73
2022/05/29 13:54:12;;;;;;;6.10;1.40;;;16.50;58.70;;;;;;4872795;29;20486;-73
2022/05/29 13:57:01;;;;;;;6.20;1.67;;;16.40;58.80;;;;;;4885287;29;20470;-72